| time (UTC) | temp F | wind direction | speed knots | gust knots | rain 1hr in | rain 24hr in | rain mn in | humidity % | barometer mb |
| 20260510081725 | 0 | 0.0 | 0.0 | 0.00 | 0.10 | 0.00 | 1012.6 | ||
| 20260510081135 | 0 | 0.0 | 0.0 | 0.00 | 0.10 | 0.00 | 1012.7 | ||
| 20260510080521 | 0 | 0.0 | 0.0 | 0.00 | 0.10 | 0.00 | 1012.8 | ||
| 20260510075922 | 0 | 0.0 | 0.0 | 0.00 | 0.10 | 0.00 | 1012.8 | ||
| 20260510075322 | 0 | 0.0 | 0.0 | 0.00 | 0.10 | 0.00 | 1012.6 | ||
| 20260510074724 | 0 | 0.0 | 0.0 | 0.00 | 0.10 | 0.00 | 1012.8 | ||
| 20260510074153 | 0 | 0.0 | 0.0 | 0.00 | 0.10 | 0.00 | 1012.6 | ||
| 20260510073535 | 0 | 0.0 | 0.0 | 0.00 | 0.10 | 0.00 | 1012.4 | ||
| 20260510072921 | 0 | 0.0 | 0.0 | 0.00 | 0.10 | 0.00 | 1013.0 | ||
| 20260510072321 | 0 | 0.0 | 0.0 | 0.00 | 0.10 | 0.00 | 1013.0 | ||
| 20260510071726 | 0 | 0.0 | 0.0 | 0.00 | 0.10 | 0.00 | 1012.7 | ||
| 20260510071134 | 0 | 0.0 | 0.0 | 0.00 | 0.10 | 0.00 | 1012.3 | ||
| 20260510070526 | 48 | 0.0 | 0.0 | 0.00 | 0.10 | 0.00 | 1012.0 | ||
| 20260510065922 | 48 | 0 | 0.0 | 1.7 | 0.00 | 0.10 | 0.00 | 42 | 1012.1 |
| 20260510065323 | 48 | 0 | 0.0 | 1.7 | 0.00 | 0.10 | 0.00 | 42 | 1012.1 |
| 20260510064722 | 48 | 265 | 0.9 | 2.6 | 0.00 | 0.10 | 0.00 | 42 | 1012.0 |
| 20260510064120 | 48 | 294 | 0.9 | 2.6 | 0.00 | 0.10 | 0.00 | 42 | 1011.9 |
| 20260510063524 | 47 | 256 | 0.9 | 1.7 | 0.00 | 0.10 | 0.00 | 44 | 1012.0 |
| 20260510062928 | 47 | 223 | 0.9 | 1.7 | 0.00 | 0.10 | 0.00 | 46 | 1012.1 |
| 20260510062323 | 46 | 223 | 0.9 | 5.2 | 0.00 | 0.10 | 0.00 | 47 | 1012.2 |
| 20260510061728 | 47 | 211 | 1.7 | 5.2 | 0.00 | 0.10 | 0.00 | 48 | 1012.3 |
| 20260510061203 | 47 | 219 | 1.7 | 4.3 | 0.00 | 0.10 | 0.00 | 49 | 1012.1 |
| 20260510060522 | 48 | 218 | 2.6 | 3.5 | 0.00 | 0.10 | 0.00 | 48 | 1012.1 |
| 20260510055929 | 49 | 260 | 1.7 | 3.5 | 0.00 | 0.10 | 0.00 | 47 | 1011.9 |
| 20260510055322 | 49 | 26 | 0.9 | 1.7 | 0.00 | 0.10 | 0.00 | 47 | 1011.8 |
| 20260510054729 | 49 | 0 | 0.0 | 0.0 | 0.00 | 0.10 | 0.00 | 47 | 1011.7 |
| 20260510054156 | 49 | 0 | 0.0 | 0.0 | 0.00 | 0.10 | 0.00 | 49 | 1011.7 |
| 20260510053523 | 49 | 0 | 0.0 | 0.0 | 0.00 | 0.10 | 0.00 | 50 | 1011.7 |
| 20260510052922 | 50 | 0 | 0.0 | 0.0 | 0.00 | 0.10 | 0.00 | 48 | 1011.7 |
| 20260510052328 | 50 | 0 | 0.0 | 0.0 | 0.00 | 0.10 | 0.00 | 47 | 1011.8 |
| 20260510051722 | 50 | 0 | 0.0 | 0.0 | 0.00 | 0.10 | 0.00 | 47 | 1011.9 |
| 20260510051200 | 50 | 0 | 0.0 | 0.0 | 0.00 | 0.10 | 0.00 | 47 | 1012.0 |
| 20260510050523 | 50 | 0 | 0.0 | 0.0 | 0.00 | 0.10 | 0.00 | 47 | 1011.9 |
| 20260510045927 | 50 | 0 | 0.0 | 0.0 | 0.00 | 0.10 | 0.00 | 48 | 1011.9 |
| 20260510045321 | 49 | 0 | 0.0 | 0.0 | 0.00 | 0.10 | 0.00 | 49 | 1012.0 |
| 20260510044727 | 49 | 0 | 0.0 | 0.0 | 0.00 | 0.10 | 0.00 | 50 | 1011.9 |
| 20260510044155 | 49 | 0 | 0.0 | 0.0 | 0.00 | 0.10 | 0.00 | 50 | 1011.9 |
| 20260510043521 | 50 | 0 | 0.0 | 0.0 | 0.00 | 0.10 | 0.00 | 51 | 1011.9 |
| 20260510042927 | 50 | 0 | 0.0 | 0.0 | 0.00 | 0.10 | 0.00 | 49 | 1011.9 |
| 20260510042321 | 50 | 0 | 0.0 | 0.0 | 0.00 | 0.10 | 0.00 | 49 | 1012.0 |
| 20260510041734 | 50 | 0 | 0.0 | 0.0 | 0.00 | 0.10 | 0.00 | 49 | 1012.1 |
| 20260510041202 | 50 | 0 | 0.0 | 0.0 | 0.00 | 0.10 | 0.00 | 50 | 1012.0 |
| 20260510040521 | 50 | 0 | 0.0 | 0.0 | 0.00 | 0.10 | 0.00 | 51 | 1012.1 |
| 20260510035921 | 50 | 0 | 0.0 | 0.0 | 0.00 | 0.10 | 0.00 | 51 | 1012.2 |
| 20260510035325 | 50 | 0 | 0.0 | 0.0 | 0.00 | 0.10 | 0.00 | 51 | 1012.2 |
| 20260510034725 | 50 | 0 | 0.0 | 0.0 | 0.00 | 0.10 | 0.10 | 53 | 1012.1 |
| 20260510034138 | 50 | 0 | 0.0 | 0.0 | 0.00 | 0.10 | 0.10 | 55 | 1012.1 |
| 20260510033521 | 50 | 0 | 0.0 | 1.7 | 0.00 | 0.10 | 0.10 | 55 | 1012.2 |
| 20260510032924 | 50 | 28 | 0.9 | 1.7 | 0.00 | 0.10 | 0.10 | 56 | 1012.1 |
| 20260510032322 | 50 | 0 | 0.0 | 1.7 | 0.00 | 0.10 | 0.10 | 57 | 1012.2 |
| 20260510031732 | 50 | 0 | 0.0 | 0.0 | 0.00 | 0.10 | 0.10 | 58 | 1012.2 |
| 20260510031128 | 51 | 0 | 0.0 | 0.0 | 0.00 | 0.10 | 0.10 | 56 | 1012.1 |
| 20260510030522 | 51 | 0 | 0.0 | 0.0 | 0.00 | 0.10 | 0.10 | 57 | 1012.1 |
| 20260510025932 | 51 | 0 | 0.0 | 0.0 | 0.00 | 0.10 | 0.10 | 57 | 1012.0 |
| 20260510025322 | 51 | 0 | 0.0 | 0.9 | 0.00 | 0.10 | 0.10 | 58 | 1012.0 |
| 20260510024725 | 51 | 0 | 0.0 | 2.6 | 0.00 | 0.10 | 0.10 | 57 | 1011.8 |
| 20260510024133 | 51 | 0 | 0.0 | 2.6 | 0.00 | 0.10 | 0.10 | 57 | 1011.8 |
| 20260510023522 | 51 | 0 | 0.0 | 2.6 | 0.00 | 0.10 | 0.10 | 57 | 1011.6 |
| 20260510022922 | 51 | 0 | 0.0 | 3.5 | 0.00 | 0.10 | 0.10 | 58 | 1011.7 |
| 20260510022326 | 52 | 0 | 0.0 | 1.7 | 0.00 | 0.10 | 0.10 | 58 | 1011.7 |
| 20260510021728 | 52 | 0 | 0.0 | 1.7 | 0.00 | 0.10 | 0.10 | 58 | 1011.8 |
| 20260510021125 | 52 | 0 | 0.0 | 1.7 | 0.00 | 0.10 | 0.10 | 58 | 1011.8 |
| 20260510020528 | 52 | 0 | 0.0 | 1.7 | 0.00 | 0.10 | 0.10 | 58 | 1011.6 |
| 20260510015936 | 52 | 0 | 0.0 | 3.5 | 0.00 | 0.10 | 0.10 | 58 | 1011.5 |
| 20260510015325 | 52 | 30 | 0.9 | 3.5 | 0.00 | 0.10 | 0.10 | 56 | 1011.5 |
| 20260510014743 | 52 | 0 | 0.0 | 1.7 | 0.00 | 0.10 | 0.10 | 58 | 1011.5 |
| 20260510014214 | 52 | 0 | 0.0 | 0.0 | 0.00 | 0.10 | 0.10 | 61 | 1011.5 |
| 20260510013522 | 53 | 0 | 0.0 | 1.7 | 0.00 | 0.10 | 0.10 | 62 | 1011.4 |
| 20260510012940 | 53 | 0 | 0.0 | 1.7 | 0.00 | 0.10 | 0.10 | 63 | 1011.3 |
| 20260510012322 | 53 | 0 | 0.0 | 1.7 | 0.00 | 0.10 | 0.10 | 64 | 1011.3 |
| 20260510011729 | 54 | 0 | 0.0 | 2.6 | 0.00 | 0.10 | 0.10 | 67 | 1011.3 |
| 20260510011142 | 54 | 0 | 0.0 | 3.5 | 0.00 | 0.10 | 0.10 | 68 | 1011.2 |
| 20260510010523 | 54 | 0 | 0.0 | 3.5 | 0.00 | 0.10 | 0.10 | 69 | 1011.1 |
| 20260510005928 | 54 | 0 | 0.0 | 2.6 | 0.00 | 0.10 | 0.10 | 72 | 1011.1 |
| 20260510005322 | 55 | 0 | 0.0 | 1.7 | 0.00 | 0.10 | 0.10 | 75 | 1011.0 |
| 20260510004721 | 55 | 0 | 0.0 | 3.5 | 0.00 | 0.10 | 0.10 | 77 | 1011.1 |
| 20260510004139 | 55 | 0 | 0.0 | 3.5 | 0.00 | 0.10 | 0.10 | 78 | 1011.0 |
| 20260510003520 | 56 | 344 | 0.9 | 2.6 | 0.00 | 0.10 | 0.10 | 81 | 1010.8 |
| 20260510002921 | 56 | 334 | 0.9 | 5.2 | 0.00 | 0.10 | 0.10 | 81 | 1010.7 |
| 20260510002321 | 56 | 0 | 0.0 | 2.6 | 0.00 | 0.10 | 0.10 | 82 | 1010.8 |
| 20260510001728 | 57 | 0 | 0.0 | 1.7 | 0.00 | 0.10 | 0.10 | 82 | 1010.6 |
| 20260510001121 | 57 | 0 | 0.0 | 0.0 | 0.00 | 0.10 | 0.10 | 82 | 1010.6 |
| 20260510000521 | 58 | 0 | 0.0 | 1.7 | 0.00 | 0.10 | 0.10 | 82 | 1010.6 |
| 20260509235920 | 58 | 0 | 0.0 | 1.7 | 0.00 | 0.10 | 0.10 | 82 | 1010.7 |
| 20260509235321 | 59 | 0 | 0.0 | 3.5 | 0.00 | 0.10 | 0.10 | 81 | 1010.7 |
| 20260509234733 | 60 | 0 | 0.0 | 3.5 | 0.00 | 0.10 | 0.10 | 81 | 1010.5 |
| 20260509234120 | 60 | 0 | 0.0 | 4.3 | 0.00 | 0.10 | 0.10 | 81 | 1010.4 |
| 20260509233523 | 61 | 5 | 0.9 | 6.1 | 0.00 | 0.10 | 0.10 | 81 | 1010.4 |
| 20260509232925 | 61 | 20 | 2.6 | 6.1 | 0.00 | 0.10 | 0.10 | 81 | 1010.5 |
| 20260509232320 | 62 | 0 | 0.0 | 2.6 | 0.00 | 0.10 | 0.10 | 81 | 1010.6 |
| 20260509231725 | 61 | 0 | 0.0 | 1.7 | 0.00 | 0.10 | 0.10 | 80 | 1010.6 |
| 20260509231122 | 61 | 0 | 0.0 | 0.9 | 0.00 | 0.10 | 0.10 | 80 | 1010.5 |
| 20260509230520 | 61 | 0 | 0.0 | 0.9 | 0.00 | 0.10 | 0.10 | 79 | 1010.6 |
| 20260509225921 | 61 | 0 | 0.0 | 1.7 | 0.00 | 0.10 | 0.10 | 79 | 1010.5 |
| 20260509225327 | 61 | 0 | 0.0 | 2.6 | 0.00 | 0.10 | 0.10 | 78 | 1010.5 |
| 20260509224725 | 61 | 0 | 0.0 | 3.5 | 0.00 | 0.10 | 0.10 | 78 | 1010.5 |
| 20260509224124 | 62 | 34 | 0.9 | 3.5 | 0.00 | 0.10 | 0.10 | 78 | 1010.5 |
| 20260509223547 | 62 | 21 | 0.9 | 3.5 | 0.00 | 0.10 | 0.10 | 78 | 1010.5 |
| 20260509222923 | 62 | 15 | 0.9 | 3.5 | 0.00 | 0.10 | 0.10 | 79 | 1010.6 |
| 20260509222322 | 62 | 0 | 0.0 | 1.7 | 0.00 | 0.10 | 0.10 | 79 | 1010.6 |
| 20260509221725 | 62 | 0 | 0.0 | 0.9 | 0.00 | 0.10 | 0.10 | 79 | 1010.7 |
| 20260509221123 | 62 | 0 | 0.0 | 0.0 | 0.00 | 0.10 | 0.10 | 79 | 1010.7 |
| 20260509220520 | 61 | 0 | 0.0 | 0.0 | 0.00 | 0.10 | 0.10 | 79 | 1010.7 |
| 20260509215920 | 61 | 0 | 0.0 | 0.9 | 0.00 | 0.10 | 0.10 | 79 | 1010.7 |
| 20260509215325 | 60 | 0 | 0.0 | 0.9 | 0.00 | 0.10 | 0.10 | 82 | 1010.8 |
| 20260509214721 | 59 | 0 | 0.0 | 0.9 | 0.00 | 0.10 | 0.10 | 81 | 1010.9 |
| 20260509214138 | 59 | 0 | 0.0 | 1.7 | 0.00 | 0.10 | 0.10 | 81 | 1011.0 |
| 20260509213532 | 58 | 0 | 0.0 | 1.7 | 0.00 | 0.10 | 0.10 | 76 | 1011.1 |
| 20260509212920 | 56 | 0 | 0.0 | 1.7 | 0.00 | 0.10 | 0.10 | 62 | 1011.0 |
| 20260509212320 | 56 | 0 | 0.0 | 2.6 | 0.00 | 0.10 | 0.10 | 48 | 1010.9 |
| 20260509211744 | 56 | 0 | 0.0 | 3.5 | 0.00 | 0.10 | 0.10 | 43 | 1010.8 |
| 20260509211120 | 55 | 336 | 0.9 | 3.5 | 0.00 | 0.10 | 0.10 | 42 | 1010.8 |
| 20260509210520 | 55 | 309 | 0.9 | 3.5 | 0.00 | 0.10 | 0.10 | 41 | 1010.7 |
| 20260509205920 | 54 | 260 | 1.7 | 4.3 | 0.00 | 0.10 | 0.10 | 42 | 1010.8 |
| 20260509205320 | 54 | 264 | 1.7 | 4.3 | 0.00 | 0.10 | 0.10 | 42 | 1010.9 |
| 20260509204725 | 54 | 278 | 1.7 | 3.5 | 0.00 | 0.10 | 0.10 | 42 | 1011.0 |
| 20260509204120 | 54 | 270 | 0.9 | 3.5 | 0.00 | 0.10 | 0.10 | 43 | 1011.0 |
| 20260509203520 | 54 | 316 | 0.9 | 3.5 | 0.00 | 0.10 | 0.10 | 42 | 1011.0 |
| 20260509202923 | 54 | 278 | 0.9 | 3.5 | 0.00 | 0.10 | 0.10 | 43 | 1011.1 |
| 20260509202320 | 55 | 309 | 0.9 | 3.5 | 0.00 | 0.10 | 0.10 | 42 | 1011.1 |
| 20260509202207 | 54 | 0 | 0.0 | 3.5 | 0.00 | 0.10 | 0.10 | 42 | 1011.0 |
| 20260509201156 | 54 | 232 | 0.9 | 5.2 | 0.00 | 0.10 | 0.10 | 43 | 1011.1 |
| 20260509200522 | 54 | 266 | 1.7 | 3.5 | 0.00 | 0.10 | 0.10 | 44 | 1011.2 |
| 20260509195922 | 55 | 0 | 0.0 | 2.6 | 0.00 | 0.10 | 0.10 | 43 | 1011.2 |
| 20260509195322 | 55 | 96 | 0.9 | 4.3 | 0.00 | 0.10 | 0.10 | 43 | 1011.4 |
| 20260509194750 | 55 | 251 | 1.7 | 4.3 | 0.00 | 0.10 | 0.10 | 43 | 1011.2 |
| 20260509194122 | 55 | 0 | 0.0 | 2.6 | 0.00 | 0.10 | 0.10 | 42 | 1011.3 |
| 20260509193525 | 55 | 0 | 0.0 | 3.5 | 0.00 | 0.10 | 0.10 | 46 | 1011.4 |
| 20260509192922 | 56 | 0 | 0.0 | 3.5 | 0.00 | 0.10 | 0.10 | 41 | 1011.5 |
| 20260509192320 | 57 | 0 | 0.0 | 3.5 | 0.00 | 0.10 | 0.10 | 38 | 1011.5 |
| 20260509191727 | 56 | 0 | 0.0 | 4.3 | 0.00 | 0.10 | 0.10 | 39 | 1011.4 |
| 20260509191204 | 56 | 0 | 0.0 | 5.2 | 0.00 | 0.10 | 0.10 | 38 | 1011.6 |
| 20260509190544 | 55 | 337 | 0.9 | 5.2 | 0.00 | 0.10 | 0.10 | 40 | 1011.6 |
| 20260509185920 | 55 | 0 | 0.0 | 1.7 | 0.00 | 0.10 | 0.10 | 39 | 1011.8 |
| 20260509185324 | 54 | 0 | 0.0 | 2.6 | 0.00 | 0.10 | 0.10 | 41 | 1011.9 |
| 20260509184746 | 54 | 338 | 0.9 | 5.2 | 0.00 | 0.10 | 0.10 | 40 | 1012.0 |
| 20260509184132 | 54 | 1 | 0.9 | 4.3 | 0.00 | 0.10 | 0.10 | 39 | 1012.1 |
| 20260509183524 | 53 | 334 | 0.9 | 2.6 | 0.00 | 0.10 | 0.10 | 41 | 1012.3 |
| 20260509182921 | 53 | 0 | 0.0 | 1.7 | 0.00 | 0.10 | 0.10 | 40 | 1012.6 |
| 20260509182320 | 53 | 0 | 0.0 | 1.7 | 0.00 | 0.10 | 0.10 | 42 | 1012.5 |
| 20260509181723 | 53 | 0 | 0.0 | 0.9 | 0.00 | 0.10 | 0.10 | 41 | 1012.7 |
| 20260509181120 | 53 | 0 | 0.0 | 0.0 | 0.00 | 0.10 | 0.10 | 42 | 1012.6 |
| 20260509180520 | 52 | 0 | 0.0 | 2.6 | 0.00 | 0.10 | 0.10 | 45 | 1012.8 |
| 20260509175922 | 52 | 50 | 0.9 | 4.3 | 0.00 | 0.10 | 0.10 | 46 | 1012.8 |
| 20260509175345 | 52 | 74 | 0.9 | 4.3 | 0.00 | 0.10 | 0.10 | 46 | 1013.0 |
| 20260509174725 | 52 | 0 | 0.0 | 3.5 | 0.00 | 0.10 | 0.10 | 47 | 1012.8 |
| 20260509174120 | 52 | 40 | 0.9 | 3.5 | 0.00 | 0.10 | 0.10 | 46 | 1012.9 |
| 20260509173520 | 52 | 60 | 1.7 | 3.5 | 0.00 | 0.10 | 0.10 | 46 | 1012.8 |
| 20260509172920 | 52 | 40 | 0.9 | 2.6 | 0.00 | 0.10 | 0.10 | 45 | 1012.9 |
| 20260509172320 | 52 | 58 | 0.9 | 3.5 | 0.00 | 0.10 | 0.10 | 47 | 1012.9 |
| 20260509171727 | 52 | 0 | 0.0 | 5.2 | 0.00 | 0.10 | 0.10 | 46 | 1013.1 |
| 20260509171139 | 52 | 70 | 0.9 | 3.5 | 0.00 | 0.10 | 0.10 | 47 | 1013.0 |
| 20260509170520 | 52 | 0 | 0.0 | 4.3 | 0.00 | 0.10 | 0.10 | 48 | 1013.1 |
| 20260509165921 | 52 | 67 | 0.9 | 2.6 | 0.01 | 0.10 | 0.10 | 46 | 1013.1 |
| 20260509165320 | 52 | 0 | 0.0 | 6.1 | 0.01 | 0.10 | 0.10 | 48 | 1013.1 |
| 20260509164726 | 52 | 79 | 3.5 | 6.1 | 0.02 | 0.10 | 0.10 | 45 | 1013.2 |
| 20260509164120 | 52 | 72 | 1.7 | 5.2 | 0.02 | 0.10 | 0.10 | 45 | 1013.2 |
| 20260509163524 | 52 | 66 | 0.9 | 5.2 | 0.04 | 0.10 | 0.10 | 46 | 1013.2 |
| 20260509162924 | 51 | 82 | 1.7 | 5.2 | 0.05 | 0.10 | 0.10 | 45 | 1012.9 |
| 20260509162319 | 51 | 0 | 0.0 | 2.6 | 0.06 | 0.10 | 0.10 | 45 | 1012.3 |
| 20260509161728 | 51 | 291 | 0.9 | 2.6 | 0.08 | 0.10 | 0.10 | 45 | 1012.3 |
| 20260509161132 | 51 | 0 | 0.0 | 0.0 | 0.09 | 0.10 | 0.10 | 45 | 1012.2 |
| 20260509160519 | 51 | 0 | 0.0 | 0.0 | 0.09 | 0.10 | 0.10 | 45 | 1012.3 |
| 20260509155921 | 52 | 0 | 0.0 | 1.7 | 0.09 | 0.09 | 0.09 | 45 | 1012.7 |
| 20260509155320 | 51 | 0 | 0.0 | 4.3 | 0.09 | 0.09 | 0.09 | 47 | 1013.0 |
| 20260509154724 | 51 | 61 | 1.7 | 5.2 | 0.08 | 0.08 | 0.08 | 48 | 1013.4 |
| 20260509154202 | 51 | 58 | 1.7 | 6.1 | 0.08 | 0.08 | 0.08 | 49 | 1013.4 |
| 20260509153523 | 51 | 51 | 3.5 | 6.1 | 0.06 | 0.06 | 0.06 | 50 | 1013.5 |
| 20260509152923 | 51 | 55 | 0.9 | 3.5 | 0.05 | 0.05 | 0.05 | 51 | 1013.4 |
| 20260509152328 | 51 | 0 | 0.0 | 7.0 | 0.04 | 0.04 | 0.04 | 54 | 1013.4 |
| 20260509151723 | 51 | 81 | 3.5 | 7.8 | 0.02 | 0.02 | 0.02 | 59 | 1013.6 |
| 20260509151119 | 51 | 79 | 3.5 | 7.8 | 0.01 | 0.01 | 0.01 | 60 | 1013.8 |
| 20260509150530 | 52 | 78 | 3.5 | 7.0 | 0.01 | 0.01 | 0.01 | 62 | 1013.8 |
| 20260509145934 | 53 | 79 | 3.5 | 7.0 | 0.00 | 0.00 | 0.00 | 65 | 1013.8 |
| 20260509145319 | 53 | 75 | 1.7 | 6.1 | 0.00 | 0.00 | 0.00 | 72 | 1013.5 |
| 20260509144726 | 56 | 74 | 1.7 | 6.1 | 0.00 | 0.00 | 0.00 | 82 | 1013.4 |
| 20260509144122 | 57 | 86 | 3.5 | 7.8 | 0.00 | 0.00 | 0.00 | 79 | 1013.3 |
| 20260509143529 | 58 | 82 | 4.3 | 7.8 | 0.00 | 0.00 | 0.00 | 78 | 1013.3 |
| 20260509142922 | 58 | 81 | 5.2 | 7.0 | 0.00 | 0.00 | 0.00 | 78 | 1013.3 |
| 20260509142320 | 58 | 80 | 3.5 | 6.1 | 0.00 | 0.00 | 0.00 | 78 | 1013.2 |
| 20260509141727 | 58 | 76 | 2.6 | 7.0 | 0.00 | 0.00 | 0.00 | 79 | 1013.0 |
| 20260509141128 | 58 | 58 | 4.3 | 7.0 | 0.00 | 0.00 | 0.00 | 79 | 1012.9 |
| 20260509140522 | 58 | 75 | 3.5 | 7.8 | 0.00 | 0.00 | 0.00 | 80 | 1012.9 |
| 20260509135920 | 58 | 51 | 2.6 | 7.8 | 0.00 | 0.00 | 0.00 | 80 | 1012.8 |
| 20260509135320 | 58 | 78 | 3.5 | 7.8 | 0.00 | 0.00 | 0.00 | 80 | 1012.9 |
| 20260509134722 | 58 | 75 | 3.5 | 9.6 | 0.00 | 0.00 | 0.00 | 80 | 1012.8 |
| 20260509134119 | 58 | 69 | 4.3 | 9.6 | 0.00 | 0.00 | 0.00 | 79 | 1012.8 |
| 20260509133520 | 58 | 65 | 3.5 | 6.1 | 0.00 | 0.00 | 0.00 | 80 | 1012.5 |
| 20260509132920 | 58 | 56 | 2.6 | 7.0 | 0.00 | 0.00 | 0.00 | 79 | 1012.5 |
| 20260509132320 | 58 | 30 | 3.5 | 7.0 | 0.00 | 0.00 | 0.00 | 79 | 1012.6 |
| 20260509131722 | 58 | 38 | 3.5 | 7.0 | 0.00 | 0.00 | 0.00 | 79 | 1012.5 |
| 20260509131120 | 58 | 51 | 2.6 | 6.1 | 0.00 | 0.00 | 0.00 | 80 | 1012.5 |
| 20260509130524 | 58 | 68 | 2.6 | 7.0 | 0.00 | 0.00 | 0.00 | 80 | 1012.6 |
| 20260509125923 | 57 | 64 | 3.5 | 7.0 | 0.00 | 0.00 | 0.00 | 79 | 1012.6 |
| 20260509125321 | 57 | 55 | 2.6 | 5.2 | 0.00 | 0.00 | 0.00 | 80 | 1012.7 |
| 20260509124727 | 57 | 62 | 2.6 | 4.3 | 0.00 | 0.00 | 0.00 | 80 | 1012.8 |
| 20260509124119 | 57 | 36 | 0.9 | 5.2 | 0.00 | 0.00 | 0.00 | 80 | 1012.7 |
| 20260509123520 | 57 | 34 | 3.5 | 5.2 | 0.00 | 0.00 | 0.00 | 80 | 1012.6 |
| 20260509122924 | 57 | 0 | 0.0 | 4.3 | 0.00 | 0.00 | 0.00 | 80 | 1012.5 |
| 20260509122323 | 57 | 34 | 1.7 | 4.3 | 0.00 | 0.00 | 0.00 | 80 | 1012.3 |
| 20260509121726 | 56 | 26 | 1.7 | 4.3 | 0.00 | 0.00 | 0.00 | 80 | 1012.4 |
| 20260509121129 | 56 | 0 | 0.0 | 2.6 | 0.00 | 0.00 | 0.00 | 80 | 1012.6 |
| 20260509120520 | 56 | 25 | 0.9 | 2.6 | 0.00 | 0.00 | 0.00 | 80 | 1012.5 |
| 20260509115920 | 55 | 0 | 0.0 | 2.6 | 0.00 | 0.00 | 0.00 | 80 | 1012.5 |
| 20260509115320 | 55 | 36 | 1.7 | 2.6 | 0.00 | 0.00 | 0.00 | 79 | 1012.6 |
| 20260509114726 | 55 | 0 | 0.0 | 2.6 | 0.00 | 0.00 | 0.00 | 79 | 1012.5 |
| 20260509114120 | 55 | 0 | 0.0 | 2.6 | 0.00 | 0.00 | 0.00 | 79 | 1012.5 |
| 20260509113529 | 55 | 0 | 0.0 | 2.6 | 0.00 | 0.00 | 0.00 | 79 | 1012.3 |
| 20260509112919 | 55 | 0 | 0.0 | 2.6 | 0.00 | 0.00 | 0.00 | 79 | 1012.3 |
| 20260509112327 | 55 | 0 | 0.0 | 2.6 | 0.00 | 0.00 | 0.00 | 79 | 1012.3 |
| 20260509111728 | 55 | 0 | 0.0 | 3.5 | 0.00 | 0.00 | 0.00 | 79 | 1012.4 |
| 20260509111119 | 55 | 22 | 0.9 | 3.5 | 0.00 | 0.00 | 0.00 | 79 | 1012.5 |
| 20260509110523 | 54 | 0 | 0.0 | 2.6 | 0.00 | 0.00 | 0.00 | 80 | 1012.4 |
| 20260509105920 | 54 | 25 | 0.9 | 2.6 | 0.00 | 0.00 | 0.00 | 80 | 1012.3 |
| 20260509105346 | 54 | 0 | 0.0 | 1.7 | 0.00 | 0.00 | 0.00 | 81 | 1012.3 |
| 20260509104728 | 54 | 0.0 | 1.7 | 0.00 | 0.00 | 0.00 | 1012.2 | ||
| 20260509104121 | 0 | 0.0 | 0.0 | 0.00 | 0.00 | 0.00 | 1012.1 | ||
| 20260509103520 | 0 | 0.0 | 0.0 | 0.00 | 0.00 | 0.00 | 1012.1 | ||
| 20260509102919 | 0 | 0.0 | 0.0 | 0.00 | 0.00 | 0.00 | 1012.0 | ||
| 20260509102321 | 0 | 0.0 | 0.0 | 0.00 | 0.00 | 0.00 | 1012.1 | ||
| 20260509101728 | 0 | 0.0 | 0.0 | 0.00 | 0.00 | 0.00 | 1012.0 | ||
| 20260509101309 | 0 | 0.0 | 0.0 | 0.00 | 0.00 | 0.00 | 1012.1 | ||
| 20260509100912 | 0 | 0.0 | 0.0 | 0.00 | 0.00 | 0.00 | 1011.9 | ||
| 20260509095925 | 0 | 0.0 | 0.0 | 0.00 | 0.00 | 0.00 | 1012.0 | ||
| 20260509095328 | 0 | 0.0 | 0.0 | 0.00 | 0.00 | 0.00 | 1011.9 | ||
| 20260509094726 | 0 | 0.0 | 0.0 | 0.00 | 0.00 | 0.00 | 1012.1 | ||
| 20260509094120 | 0 | 0.0 | 0.0 | 0.00 | 0.00 | 0.00 | 1012.0 | ||
| 20260509093519 | 0 | 0.0 | 0.0 | 0.00 | 0.00 | 0.00 | 1012.2 | ||
| 20260509092919 | 0 | 0.0 | 0.0 | 0.00 | 0.00 | 0.00 | 1012.1 | ||
| 20260509092324 | 0 | 0.0 | 0.0 | 0.00 | 0.00 | 0.00 | 1012.1 | ||
| 20260509091719 | 0 | 0.0 | 0.0 | 0.00 | 0.00 | 0.00 | 1012.2 | ||
| 20260509091121 | 0 | 0.0 | 0.0 | 0.00 | 0.00 | 0.00 | 1012.2 | ||
| 20260509090520 | 0 | 0.0 | 0.0 | 0.00 | 0.00 | 0.00 | 1012.3 | ||
| 20260509085924 | 0 | 0.0 | 0.0 | 0.00 | 0.00 | 0.00 | 1012.2 | ||
| 20260509085329 | 0 | 0.0 | 0.0 | 0.00 | 0.00 | 0.00 | 1012.3 | ||
| 20260509084734 | 0 | 0.0 | 0.0 | 0.00 | 0.00 | 0.00 | 1012.3 | ||
| 20260509084120 | 0 | 0.0 | 0.0 | 0.00 | 0.00 | 0.00 | 1012.4 | ||
| 20260509083519 | 0 | 0.0 | 0.0 | 0.00 | 0.00 | 0.00 | 1012.5 | ||
| 20260509082923 | 0 | 0.0 | 0.0 | 0.00 | 0.00 | 0.00 | 1012.5 | ||
| 20260509082319 | 0 | 0.0 | 0.0 | 0.00 | 0.00 | 0.00 | 1012.5 |